sensor_id;sensor_type;location;lat;lon;timestamp;P1;durP1;ratioP1;P2;durP2;ratioP2
66856;SDS011;53766;50.280;19.160;2022-11-15T00:01:09;11.35;;;7.72;;
66856;SDS011;53766;50.280;19.160;2022-11-15T00:03:44;10.95;;;7.50;;
66856;SDS011;53766;50.280;19.160;2022-11-15T00:06:11;11.98;;;8.05;;
66856;SDS011;53766;50.280;19.160;2022-11-15T00:08:39;12.60;;;7.85;;
66856;SDS011;53766;50.280;19.160;2022-11-15T00:11:08;11.50;;;8.07;;
66856;SDS011;53766;50.280;19.160;2022-11-15T00:13:38;14.57;;;7.82;;
66856;SDS011;53766;50.280;19.160;2022-11-15T00:16:06;11.82;;;8.35;;
66856;SDS011;53766;50.280;19.160;2022-11-15T00:18:34;10.90;;;8.23;;
66856;SDS011;53766;50.280;19.160;2022-11-15T00:21:05;14.27;;;8.27;;
66856;SDS011;53766;50.280;19.160;2022-11-15T00:23:34;12.60;;;8.50;;
66856;SDS011;53766;50.280;19.160;2022-11-15T00:26:02;11.80;;;8.45;;
66856;SDS011;53766;50.280;19.160;2022-11-15T00:28:30;11.95;;;8.32;;
66856;SDS011;53766;50.280;19.160;2022-11-15T00:31:05;13.43;;;8.27;;
66856;SDS011;53766;50.280;19.160;2022-11-15T00:33:34;12.13;;;8.40;;
66856;SDS011;53766;50.280;19.160;2022-11-15T00:36:06;14.00;;;8.25;;
66856;SDS011;53766;50.280;19.160;2022-11-15T00:38:36;11.05;;;7.53;;
66856;SDS011;53766;50.280;19.160;2022-11-15T00:41:05;12.82;;;8.15;;
66856;SDS011;53766;50.280;19.160;2022-11-15T00:43:35;10.27;;;7.38;;
66856;SDS011;53766;50.280;19.160;2022-11-15T00:46:03;12.27;;;7.97;;
66856;SDS011;53766;50.280;19.160;2022-11-15T00:48:31;12.43;;;8.40;;
66856;SDS011;53766;50.280;19.160;2022-11-15T00:50:58;12.05;;;8.43;;
66856;SDS011;53766;50.280;19.160;2022-11-15T00:53:26;11.15;;;7.82;;
66856;SDS011;53766;50.280;19.160;2022-11-15T00:55:55;11.27;;;7.82;;
66856;SDS011;53766;50.280;19.160;2022-11-15T00:58:22;12.48;;;8.35;;
66856;SDS011;53766;50.280;19.160;2022-11-15T01:00:50;10.93;;;7.63;;
66856;SDS011;53766;50.280;19.160;2022-11-15T01:03:17;10.93;;;7.80;;
66856;SDS011;53766;50.280;19.160;2022-11-15T01:05:45;12.48;;;8.32;;
66856;SDS011;53766;50.280;19.160;2022-11-15T01:08:13;10.40;;;7.75;;
66856;SDS011;53766;50.280;19.160;2022-11-15T01:10:44;11.20;;;7.57;;
66856;SDS011;53766;50.280;19.160;2022-11-15T01:13:11;11.65;;;8.30;;
66856;SDS011;53766;50.280;19.160;2022-11-15T01:15:39;11.98;;;7.60;;
66856;SDS011;53766;50.280;19.160;2022-11-15T01:18:08;11.20;;;7.60;;
66856;SDS011;53766;50.280;19.160;2022-11-15T01:20:39;10.57;;;7.43;;
66856;SDS011;53766;50.280;19.160;2022-11-15T01:23:10;12.18;;;8.27;;
66856;SDS011;53766;50.280;19.160;2022-11-15T01:25:38;9.77;;;7.30;;
66856;SDS011;53766;50.280;19.160;2022-11-15T01:28:05;11.00;;;7.70;;
66856;SDS011;53766;50.280;19.160;2022-11-15T01:30:33;12.10;;;8.07;;
66856;SDS011;53766;50.280;19.160;2022-11-15T01:33:00;10.90;;;7.70;;
66856;SDS011;53766;50.280;19.160;2022-11-15T01:35:28;11.23;;;7.95;;
66856;SDS011;53766;50.280;19.160;2022-11-15T01:37:55;12.70;;;8.38;;
66856;SDS011;53766;50.280;19.160;2022-11-15T01:40:23;10.13;;;7.00;;
66856;SDS011;53766;50.280;19.160;2022-11-15T01:42:50;11.13;;;7.78;;
66856;SDS011;53766;50.280;19.160;2022-11-15T01:45:18;11.10;;;7.38;;
66856;SDS011;53766;50.280;19.160;2022-11-15T01:47:46;10.82;;;7.45;;
66856;SDS011;53766;50.280;19.160;2022-11-15T01:50:19;11.25;;;7.60;;
66856;SDS011;53766;50.280;19.160;2022-11-15T01:52:51;12.77;;;8.13;;
66856;SDS011;53766;50.280;19.160;2022-11-15T01:55:20;11.10;;;7.53;;
66856;SDS011;53766;50.280;19.160;2022-11-15T01:57:50;10.32;;;7.28;;
66856;SDS011;53766;50.280;19.160;2022-11-15T02:00:20;12.25;;;7.75;;
66856;SDS011;53766;50.280;19.160;2022-11-15T02:02:48;10.13;;;7.05;;
66856;SDS011;53766;50.280;19.160;2022-11-15T02:05:15;10.55;;;7.45;;
66856;SDS011;53766;50.280;19.160;2022-11-15T02:07:43;10.25;;;7.10;;
66856;SDS011;53766;50.280;19.160;2022-11-15T02:10:19;11.18;;;7.93;;
66856;SDS011;53766;50.280;19.160;2022-11-15T02:12:49;9.50;;;7.13;;
66856;SDS011;53766;50.280;19.160;2022-11-15T02:15:18;15.10;;;7.78;;
66856;SDS011;53766;50.280;19.160;2022-11-15T02:28:48;11.57;;;7.78;;
66856;SDS011;53766;50.280;19.160;2022-11-15T02:34:16;10.07;;;7.18;;
66856;SDS011;53766;50.280;19.160;2022-11-15T02:39:37;8.93;;;6.88;;
66856;SDS011;53766;50.280;19.160;2022-11-15T02:42:28;10.73;;;7.18;;
66856;SDS011;53766;50.280;19.160;2022-11-15T02:45:25;10.20;;;7.30;;
66856;SDS011;53766;50.280;19.160;2022-11-15T02:47:57;10.10;;;7.10;;
66856;SDS011;53766;50.280;19.160;2022-11-15T02:50:28;9.95;;;7.50;;
66856;SDS011;53766;50.280;19.160;2022-11-15T02:52:59;11.43;;;7.50;;
66856;SDS011;53766;50.280;19.160;2022-11-15T02:55:27;12.43;;;7.70;;
66856;SDS011;53766;50.280;19.160;2022-11-15T03:00:32;9.68;;;7.22;;
66856;SDS011;53766;50.280;19.160;2022-11-15T03:05:52;10.13;;;7.25;;
66856;SDS011;53766;50.280;19.160;2022-11-15T03:08:42;9.45;;;7.28;;
66856;SDS011;53766;50.280;19.160;2022-11-15T03:11:21;9.27;;;6.95;;
66856;SDS011;53766;50.280;19.160;2022-11-15T03:19:25;9.30;;;7.13;;
66856;SDS011;53766;50.280;19.160;2022-11-15T03:22:11;9.63;;;6.68;;
66856;SDS011;53766;50.280;19.160;2022-11-15T03:24:42;8.30;;;6.45;;
66856;SDS011;53766;50.280;19.160;2022-11-15T03:27:13;10.02;;;7.13;;
66856;SDS011;53766;50.280;19.160;2022-11-15T03:29:46;8.77;;;6.85;;
66856;SDS011;53766;50.280;19.160;2022-11-15T03:32:19;11.05;;;6.95;;
66856;SDS011;53766;50.280;19.160;2022-11-15T03:34:56;8.98;;;6.68;;
66856;SDS011;53766;50.280;19.160;2022-11-15T03:37:43;10.63;;;7.20;;
66856;SDS011;53766;50.280;19.160;2022-11-15T03:40:16;9.20;;;6.72;;
66856;SDS011;53766;50.280;19.160;2022-11-15T03:43:01;10.27;;;7.07;;
66856;SDS011;53766;50.280;19.160;2022-11-15T03:45:38;9.93;;;6.65;;
66856;SDS011;53766;50.280;19.160;2022-11-15T03:48:12;10.07;;;6.90;;
66856;SDS011;53766;50.280;19.160;2022-11-15T03:50:43;11.07;;;7.38;;
66856;SDS011;53766;50.280;19.160;2022-11-15T03:53:12;9.38;;;6.78;;
66856;SDS011;53766;50.280;19.160;2022-11-15T03:55:40;7.88;;;6.20;;
66856;SDS011;53766;50.280;19.160;2022-11-15T03:58:07;10.18;;;6.82;;
66856;SDS011;53766;50.280;19.160;2022-11-15T04:00:35;9.15;;;6.55;;
66856;SDS011;53766;50.280;19.160;2022-11-15T04:03:02;9.02;;;6.35;;
66856;SDS011;53766;50.280;19.160;2022-11-15T04:05:29;9.32;;;6.72;;
66856;SDS011;53766;50.280;19.160;2022-11-15T04:07:57;9.00;;;6.50;;
66856;SDS011;53766;50.280;19.160;2022-11-15T04:10:25;8.90;;;6.40;;
66856;SDS011;53766;50.280;19.160;2022-11-15T04:12:52;9.38;;;6.72;;
66856;SDS011;53766;50.280;19.160;2022-11-15T04:15:21;8.45;;;6.30;;
66856;SDS011;53766;50.280;19.160;2022-11-15T04:17:54;10.40;;;6.82;;
66856;SDS011;53766;50.280;19.160;2022-11-15T04:20:27;8.25;;;6.47;;
66856;SDS011;53766;50.280;19.160;2022-11-15T04:23:15;9.93;;;6.53;;
66856;SDS011;53766;50.280;19.160;2022-11-15T04:26:09;9.88;;;6.25;;
66856;SDS011;53766;50.280;19.160;2022-11-15T04:28:41;8.68;;;6.22;;
66856;SDS011;53766;50.280;19.160;2022-11-15T04:31:27;10.30;;;6.47;;
66856;SDS011;53766;50.280;19.160;2022-11-15T04:33:55;8.90;;;6.45;;
66856;SDS011;53766;50.280;19.160;2022-11-15T04:36:23;9.07;;;6.53;;
66856;SDS011;53766;50.280;19.160;2022-11-15T04:39:09;8.10;;;6.05;;
66856;SDS011;53766;50.280;19.160;2022-11-15T04:41:36;9.88;;;6.53;;
66856;SDS011;53766;50.280;19.160;2022-11-15T04:44:04;7.60;;;5.97;;
66856;SDS011;53766;50.280;19.160;2022-11-15T04:46:32;8.15;;;6.25;;
66856;SDS011;53766;50.280;19.160;2022-11-15T04:48:59;8.00;;;6.07;;
66856;SDS011;53766;50.280;19.160;2022-11-15T04:51:27;8.32;;;6.13;;
66856;SDS011;53766;50.280;19.160;2022-11-15T04:53:54;7.93;;;5.80;;
66856;SDS011;53766;50.280;19.160;2022-11-15T04:56:22;8.13;;;6.35;;
66856;SDS011;53766;50.280;19.160;2022-11-15T04:58:49;8.05;;;5.93;;
66856;SDS011;53766;50.280;19.160;2022-11-15T05:01:17;8.73;;;6.47;;
66856;SDS011;53766;50.280;19.160;2022-11-15T05:03:44;9.43;;;6.15;;
66856;SDS011;53766;50.280;19.160;2022-11-15T05:06:30;8.25;;;5.78;;
66856;SDS011;53766;50.280;19.160;2022-11-15T05:08:58;7.45;;;5.88;;
66856;SDS011;53766;50.280;19.160;2022-11-15T05:11:26;6.68;;;5.55;;
66856;SDS011;53766;50.280;19.160;2022-11-15T05:13:54;9.60;;;5.90;;
66856;SDS011;53766;50.280;19.160;2022-11-15T05:16:21;8.40;;;5.97;;
66856;SDS011;53766;50.280;19.160;2022-11-15T05:18:52;7.70;;;5.80;;
66856;SDS011;53766;50.280;19.160;2022-11-15T05:21:21;8.57;;;6.15;;
66856;SDS011;53766;50.280;19.160;2022-11-15T05:23:48;6.97;;;5.68;;
66856;SDS011;53766;50.280;19.160;2022-11-15T05:26:17;7.35;;;5.40;;
66856;SDS011;53766;50.280;19.160;2022-11-15T05:28:45;8.50;;;5.82;;
66856;SDS011;53766;50.280;19.160;2022-11-15T05:31:14;9.05;;;5.97;;
66856;SDS011;53766;50.280;19.160;2022-11-15T05:33:42;8.18;;;6.15;;
66856;SDS011;53766;50.280;19.160;2022-11-15T05:36:31;8.77;;;6.07;;
66856;SDS011;53766;50.280;19.160;2022-11-15T05:39:03;7.72;;;5.57;;
66856;SDS011;53766;50.280;19.160;2022-11-15T05:41:33;7.88;;;5.55;;
66856;SDS011;53766;50.280;19.160;2022-11-15T05:44:05;8.25;;;6.00;;
66856;SDS011;53766;50.280;19.160;2022-11-15T05:46:35;7.75;;;5.60;;
66856;SDS011;53766;50.280;19.160;2022-11-15T05:49:06;9.35;;;6.22;;
66856;SDS011;53766;50.280;19.160;2022-11-15T05:51:37;7.47;;;5.47;;
66856;SDS011;53766;50.280;19.160;2022-11-15T05:54:05;7.70;;;5.80;;
66856;SDS011;53766;50.280;19.160;2022-11-15T05:56:33;7.55;;;5.82;;
66856;SDS011;53766;50.280;19.160;2022-11-15T05:59:00;8.38;;;6.07;;
66856;SDS011;53766;50.280;19.160;2022-11-15T06:01:28;8.80;;;6.10;;
66856;SDS011;53766;50.280;19.160;2022-11-15T06:03:56;8.13;;;6.10;;
66856;SDS011;53766;50.280;19.160;2022-11-15T06:06:24;8.50;;;5.63;;
66856;SDS011;53766;50.280;19.160;2022-11-15T06:08:51;8.98;;;6.00;;
66856;SDS011;53766;50.280;19.160;2022-11-15T06:11:19;9.90;;;5.93;;
66856;SDS011;53766;50.280;19.160;2022-11-15T06:13:46;9.40;;;5.55;;
66856;SDS011;53766;50.280;19.160;2022-11-15T06:16:14;10.25;;;5.97;;
66856;SDS011;53766;50.280;19.160;2022-11-15T06:18:41;7.20;;;5.43;;
66856;SDS011;53766;50.280;19.160;2022-11-15T06:21:09;10.35;;;6.03;;
66856;SDS011;53766;50.280;19.160;2022-11-15T06:23:36;8.23;;;5.53;;
66856;SDS011;53766;50.280;19.160;2022-11-15T06:26:04;7.50;;;5.75;;
66856;SDS011;53766;50.280;19.160;2022-11-15T06:28:31;7.97;;;5.55;;
66856;SDS011;53766;50.280;19.160;2022-11-15T06:31:07;9.77;;;5.93;;
66856;SDS011;53766;50.280;19.160;2022-11-15T06:33:40;10.18;;;5.50;;
66856;SDS011;53766;50.280;19.160;2022-11-15T06:36:09;7.45;;;5.63;;
66856;SDS011;53766;50.280;19.160;2022-11-15T06:38:44;9.40;;;5.50;;
66856;SDS011;53766;50.280;19.160;2022-11-15T06:41:12;8.23;;;5.53;;
66856;SDS011;53766;50.280;19.160;2022-11-15T06:43:40;7.25;;;5.20;;
66856;SDS011;53766;50.280;19.160;2022-11-15T06:46:09;8.70;;;6.10;;
66856;SDS011;53766;50.280;19.160;2022-11-15T06:48:36;7.82;;;5.47;;
66856;SDS011;53766;50.280;19.160;2022-11-15T06:51:04;10.30;;;5.22;;
66856;SDS011;53766;50.280;19.160;2022-11-15T06:53:32;9.18;;;5.50;;
66856;SDS011;53766;50.280;19.160;2022-11-15T06:56:01;7.78;;;5.50;;
66856;SDS011;53766;50.280;19.160;2022-11-15T06:58:30;7.90;;;5.25;;
66856;SDS011;53766;50.280;19.160;2022-11-15T07:01:02;9.45;;;6.00;;
66856;SDS011;53766;50.280;19.160;2022-11-15T07:03:33;9.82;;;5.68;;
66856;SDS011;53766;50.280;19.160;2022-11-15T07:06:03;9.43;;;5.40;;
66856;SDS011;53766;50.280;19.160;2022-11-15T07:08:33;11.77;;;5.88;;
66856;SDS011;53766;50.280;19.160;2022-11-15T07:11:03;7.60;;;5.07;;
66856;SDS011;53766;50.280;19.160;2022-11-15T07:13:32;9.05;;;6.00;;
66856;SDS011;53766;50.280;19.160;2022-11-15T07:16:05;8.18;;;5.70;;
66856;SDS011;53766;50.280;19.160;2022-11-15T07:18:34;8.60;;;5.70;;
66856;SDS011;53766;50.280;19.160;2022-11-15T07:21:04;7.97;;;5.57;;
66856;SDS011;53766;50.280;19.160;2022-11-15T07:23:32;6.72;;;5.10;;
66856;SDS011;53766;50.280;19.160;2022-11-15T07:26:02;8.98;;;5.80;;
66856;SDS011;53766;50.280;19.160;2022-11-15T07:28:29;8.95;;;5.30;;
66856;SDS011;53766;50.280;19.160;2022-11-15T07:30:57;8.18;;;5.72;;
66856;SDS011;53766;50.280;19.160;2022-11-15T07:33:24;6.53;;;5.20;;
66856;SDS011;53766;50.280;19.160;2022-11-15T07:35:52;6.82;;;5.32;;
66856;SDS011;53766;50.280;19.160;2022-11-15T07:38:19;7.60;;;5.47;;
66856;SDS011;53766;50.280;19.160;2022-11-15T07:40:47;8.68;;;5.82;;
66856;SDS011;53766;50.280;19.160;2022-11-15T07:43:26;8.90;;;5.28;;
66856;SDS011;53766;50.280;19.160;2022-11-15T07:45:58;7.68;;;5.70;;
66856;SDS011;53766;50.280;19.160;2022-11-15T07:48:25;8.82;;;5.50;;
66856;SDS011;53766;50.280;19.160;2022-11-15T07:51:10;9.23;;;5.95;;
66856;SDS011;53766;50.280;19.160;2022-11-15T07:53:44;8.13;;;5.60;;
66856;SDS011;53766;50.280;19.160;2022-11-15T07:56:11;8.10;;;5.90;;
66856;SDS011;53766;50.280;19.160;2022-11-15T07:58:39;8.60;;;5.70;;
66856;SDS011;53766;50.280;19.160;2022-11-15T08:01:08;7.32;;;5.47;;
66856;SDS011;53766;50.280;19.160;2022-11-15T08:03:37;7.32;;;5.22;;
66856;SDS011;53766;50.280;19.160;2022-11-15T08:06:04;8.55;;;5.88;;
66856;SDS011;53766;50.280;19.160;2022-11-15T08:08:32;7.38;;;5.68;;
66856;SDS011;53766;50.280;19.160;2022-11-15T08:11:00;10.00;;;5.10;;
66856;SDS011;53766;50.280;19.160;2022-11-15T08:13:27;7.05;;;5.07;;
66856;SDS011;53766;50.280;19.160;2022-11-15T08:15:59;8.35;;;5.47;;
66856;SDS011;53766;50.280;19.160;2022-11-15T08:18:27;7.15;;;5.50;;
66856;SDS011;53766;50.280;19.160;2022-11-15T08:20:58;7.95;;;5.65;;
66856;SDS011;53766;50.280;19.160;2022-11-15T08:23:26;9.68;;;5.78;;
66856;SDS011;53766;50.280;19.160;2022-11-15T08:26:02;9.98;;;5.85;;
66856;SDS011;53766;50.280;19.160;2022-11-15T08:28:30;9.63;;;5.82;;
66856;SDS011;53766;50.280;19.160;2022-11-15T08:30:58;17.65;;;6.20;;
66856;SDS011;53766;50.280;19.160;2022-11-15T08:33:26;8.80;;;5.80;;
66856;SDS011;53766;50.280;19.160;2022-11-15T08:35:59;19.30;;;5.63;;
66856;SDS011;53766;50.280;19.160;2022-11-15T08:38:27;19.10;;;6.45;;
66856;SDS011;53766;50.280;19.160;2022-11-15T08:41:00;8.10;;;5.47;;
66856;SDS011;53766;50.280;19.160;2022-11-15T08:43:31;9.88;;;6.10;;
66856;SDS011;53766;50.280;19.160;2022-11-15T08:45:59;8.48;;;5.95;;
66856;SDS011;53766;50.280;19.160;2022-11-15T08:48:27;10.38;;;5.70;;
66856;SDS011;53766;50.280;19.160;2022-11-15T08:50:55;8.68;;;6.10;;
66856;SDS011;53766;50.280;19.160;2022-11-15T08:53:23;8.00;;;5.85;;
66856;SDS011;53766;50.280;19.160;2022-11-15T08:55:50;11.30;;;6.30;;
66856;SDS011;53766;50.280;19.160;2022-11-15T08:58:18;8.40;;;5.70;;
66856;SDS011;53766;50.280;19.160;2022-11-15T09:00:45;8.70;;;6.40;;
66856;SDS011;53766;50.280;19.160;2022-11-15T09:03:13;10.02;;;6.25;;
66856;SDS011;53766;50.280;19.160;2022-11-15T09:05:40;8.60;;;5.68;;
66856;SDS011;53766;50.280;19.160;2022-11-15T09:08:07;8.65;;;5.80;;
66856;SDS011;53766;50.280;19.160;2022-11-15T09:10:55;9.02;;;6.10;;
66856;SDS011;53766;50.280;19.160;2022-11-15T09:13:22;8.55;;;5.65;;
66856;SDS011;53766;50.280;19.160;2022-11-15T09:15:50;9.75;;;6.20;;
66856;SDS011;53766;50.280;19.160;2022-11-15T09:18:17;8.88;;;6.40;;
66856;SDS011;53766;50.280;19.160;2022-11-15T09:20:48;11.35;;;5.68;;
66856;SDS011;53766;50.280;19.160;2022-11-15T09:23:15;8.63;;;5.90;;
66856;SDS011;53766;50.280;19.160;2022-11-15T09:25:43;8.82;;;6.03;;
66856;SDS011;53766;50.280;19.160;2022-11-15T09:28:11;10.75;;;6.50;;
66856;SDS011;53766;50.280;19.160;2022-11-15T09:30:38;9.27;;;6.68;;
66856;SDS011;53766;50.280;19.160;2022-11-15T09:33:07;8.55;;;5.93;;
66856;SDS011;53766;50.280;19.160;2022-11-15T09:35:39;11.70;;;6.50;;
66856;SDS011;53766;50.280;19.160;2022-11-15T09:38:07;11.35;;;7.25;;
66856;SDS011;53766;50.280;19.160;2022-11-15T09:40:36;15.40;;;7.25;;
66856;SDS011;53766;50.280;19.160;2022-11-15T09:43:07;10.85;;;7.32;;
66856;SDS011;53766;50.280;19.160;2022-11-15T09:45:59;11.63;;;7.40;;
66856;SDS011;53766;50.280;19.160;2022-11-15T09:50:59;15.57;;;7.78;;
66856;SDS011;53766;50.280;19.160;2022-11-15T09:53:33;11.20;;;7.35;;
66856;SDS011;53766;50.280;19.160;2022-11-15T09:56:28;15.95;;;7.35;;
66856;SDS011;53766;50.280;19.160;2022-11-15T10:04:31;17.27;;;7.78;;
66856;SDS011;53766;50.280;19.160;2022-11-15T10:09:50;18.42;;;7.82;;
66856;SDS011;53766;50.280;19.160;2022-11-15T10:12:22;12.10;;;7.65;;
66856;SDS011;53766;50.280;19.160;2022-11-15T10:14:55;12.45;;;7.45;;
66856;SDS011;53766;50.280;19.160;2022-11-15T10:20:26;14.10;;;7.20;;
66856;SDS011;53766;50.280;19.160;2022-11-15T10:25:27;12.40;;;8.05;;
66856;SDS011;53766;50.280;19.160;2022-11-15T10:27:57;11.57;;;7.63;;
66856;SDS011;53766;50.280;19.160;2022-11-15T10:30:32;13.32;;;7.53;;
66856;SDS011;53766;50.280;19.160;2022-11-15T10:33:10;11.45;;;7.18;;
66856;SDS011;53766;50.280;19.160;2022-11-15T10:35:44;12.35;;;8.02;;
66856;SDS011;53766;50.280;19.160;2022-11-15T10:38:12;14.00;;;7.68;;
66856;SDS011;53766;50.280;19.160;2022-11-15T10:40:41;14.85;;;7.78;;
66856;SDS011;53766;50.280;19.160;2022-11-15T10:43:18;13.82;;;7.60;;
66856;SDS011;53766;50.280;19.160;2022-11-15T10:45:46;16.52;;;7.95;;
66856;SDS011;53766;50.280;19.160;2022-11-15T10:48:19;13.15;;;7.78;;
66856;SDS011;53766;50.280;19.160;2022-11-15T10:50:49;11.50;;;7.75;;
66856;SDS011;53766;50.280;19.160;2022-11-15T10:53:23;11.63;;;7.50;;
66856;SDS011;53766;50.280;19.160;2022-11-15T10:55:52;14.27;;;7.93;;
66856;SDS011;53766;50.280;19.160;2022-11-15T11:00:56;14.20;;;7.60;;
66856;SDS011;53766;50.280;19.160;2022-11-15T11:06:32;11.15;;;7.60;;
66856;SDS011;53766;50.280;19.160;2022-11-15T11:09:29;12.52;;;7.72;;
66856;SDS011;53766;50.280;19.160;2022-11-15T11:12:03;20.67;;;9.40;;
66856;SDS011;53766;50.280;19.160;2022-11-15T11:14:34;23.95;;;10.43;;
66856;SDS011;53766;50.280;19.160;2022-11-15T11:22:59;37.80;;;14.23;;
66856;SDS011;53766;50.280;19.160;2022-11-15T11:25:44;41.70;;;16.05;;
66856;SDS011;53766;50.280;19.160;2022-11-15T11:28:26;59.47;;;19.60;;
66856;SDS011;53766;50.280;19.160;2022-11-15T11:31:20;57.03;;;22.65;;
66856;SDS011;53766;50.280;19.160;2022-11-15T11:34:13;67.55;;;24.15;;
66856;SDS011;53766;50.280;19.160;2022-11-15T11:37:07;66.05;;;24.45;;
66856;SDS011;53766;50.280;19.160;2022-11-15T11:39:52;61.88;;;25.50;;
66856;SDS011;53766;50.280;19.160;2022-11-15T11:42:26;55.47;;;23.00;;
66856;SDS011;53766;50.280;19.160;2022-11-15T11:45:24;62.65;;;22.75;;
66856;SDS011;53766;50.280;19.160;2022-11-15T11:50:44;53.85;;;20.63;;
66856;SDS011;53766;50.280;19.160;2022-11-15T11:56:18;47.47;;;19.95;;
66856;SDS011;53766;50.280;19.160;2022-11-15T11:58:52;47.00;;;20.15;;
66856;SDS011;53766;50.280;19.160;2022-11-15T12:01:25;50.78;;;20.27;;
66856;SDS011;53766;50.280;19.160;2022-11-15T12:09:32;45.83;;;17.92;;
66856;SDS011;53766;50.280;19.160;2022-11-15T12:12:09;45.97;;;18.27;;
66856;SDS011;53766;50.280;19.160;2022-11-15T12:14:45;48.20;;;17.75;;
66856;SDS011;53766;50.280;19.160;2022-11-15T12:17:21;40.58;;;17.17;;
66856;SDS011;53766;50.280;19.160;2022-11-15T12:19:52;34.92;;;16.60;;
66856;SDS011;53766;50.280;19.160;2022-11-15T12:25:16;40.92;;;17.55;;
66856;SDS011;53766;50.280;19.160;2022-11-15T12:30:25;37.80;;;16.15;;
66856;SDS011;53766;50.280;19.160;2022-11-15T12:35:58;36.70;;;16.48;;
66856;SDS011;53766;50.280;19.160;2022-11-15T12:41:22;32.53;;;15.13;;
66856;SDS011;53766;50.280;19.160;2022-11-15T12:43:52;31.98;;;15.07;;
66856;SDS011;53766;50.280;19.160;2022-11-15T12:46:59;36.60;;;15.55;;
66856;SDS011;53766;50.280;19.160;2022-11-15T12:59:55;33.25;;;14.57;;
66856;SDS011;53766;50.280;19.160;2022-11-15T13:02:32;36.13;;;15.27;;
66856;SDS011;53766;50.280;19.160;2022-11-15T13:17:44;28.00;;;13.35;;
66856;SDS011;53766;50.280;19.160;2022-11-15T13:30:49;27.17;;;12.85;;
66856;SDS011;53766;50.280;19.160;2022-11-15T13:33:37;30.52;;;14.38;;
66856;SDS011;53766;50.280;19.160;2022-11-15T13:36:07;28.95;;;13.30;;
66856;SDS011;53766;50.280;19.160;2022-11-15T13:38:41;35.47;;;13.75;;
66856;SDS011;53766;50.280;19.160;2022-11-15T13:43:48;28.48;;;12.95;;
66856;SDS011;53766;50.280;19.160;2022-11-15T13:48:53;28.58;;;13.20;;
66856;SDS011;53766;50.280;19.160;2022-11-15T13:51:27;26.55;;;12.63;;
66856;SDS011;53766;50.280;19.160;2022-11-15T13:54:30;28.17;;;13.52;;
66856;SDS011;53766;50.280;19.160;2022-11-15T13:59:51;25.50;;;12.80;;
66856;SDS011;53766;50.280;19.160;2022-11-15T14:02:29;25.42;;;12.25;;
66856;SDS011;53766;50.280;19.160;2022-11-15T14:05:05;27.20;;;13.18;;
66856;SDS011;53766;50.280;19.160;2022-11-15T14:07:56;27.13;;;12.60;;
66856;SDS011;53766;50.280;19.160;2022-11-15T14:10:29;26.73;;;12.65;;
66856;SDS011;53766;50.280;19.160;2022-11-15T14:12:59;22.20;;;11.48;;
66856;SDS011;53766;50.280;19.160;2022-11-15T14:18:00;25.52;;;13.50;;
66856;SDS011;53766;50.280;19.160;2022-11-15T14:20:29;28.02;;;12.55;;
66856;SDS011;53766;50.280;19.160;2022-11-15T14:23:25;26.33;;;12.45;;
66856;SDS011;53766;50.280;19.160;2022-11-15T14:25:55;23.25;;;11.73;;
66856;SDS011;53766;50.280;19.160;2022-11-15T14:30:53;25.73;;;13.13;;
66856;SDS011;53766;50.280;19.160;2022-11-15T14:36:20;24.08;;;12.05;;
66856;SDS011;53766;50.280;19.160;2022-11-15T14:38:47;22.30;;;11.65;;
66856;SDS011;53766;50.280;19.160;2022-11-15T14:41:24;25.77;;;12.75;;
66856;SDS011;53766;50.280;19.160;2022-11-15T14:43:53;22.83;;;12.43;;
66856;SDS011;53766;50.280;19.160;2022-11-15T14:46:21;20.80;;;11.95;;
66856;SDS011;53766;50.280;19.160;2022-11-15T14:48:49;21.92;;;11.80;;
66856;SDS011;53766;50.280;19.160;2022-11-15T14:51:18;20.42;;;11.88;;
66856;SDS011;53766;50.280;19.160;2022-11-15T14:53:47;22.50;;;12.10;;
66856;SDS011;53766;50.280;19.160;2022-11-15T14:56:14;21.98;;;12.13;;
66856;SDS011;53766;50.280;19.160;2022-11-15T14:58:43;24.23;;;12.52;;
66856;SDS011;53766;50.280;19.160;2022-11-15T15:01:16;20.13;;;12.18;;
66856;SDS011;53766;50.280;19.160;2022-11-15T15:03:47;23.52;;;12.18;;
66856;SDS011;53766;50.280;19.160;2022-11-15T15:06:14;22.33;;;12.13;;
66856;SDS011;53766;50.280;19.160;2022-11-15T15:08:44;22.70;;;11.82;;
66856;SDS011;53766;50.280;19.160;2022-11-15T15:11:21;23.65;;;12.98;;
66856;SDS011;53766;50.280;19.160;2022-11-15T15:13:51;22.55;;;12.20;;
66856;SDS011;53766;50.280;19.160;2022-11-15T15:16:19;20.27;;;12.43;;
66856;SDS011;53766;50.280;19.160;2022-11-15T15:18:47;25.33;;;12.45;;
66856;SDS011;53766;50.280;19.160;2022-11-15T15:24:02;22.60;;;12.70;;
66856;SDS011;53766;50.280;19.160;2022-11-15T15:26:30;26.40;;;13.45;;
66856;SDS011;53766;50.280;19.160;2022-11-15T15:29:00;22.33;;;13.00;;
66856;SDS011;53766;50.280;19.160;2022-11-15T15:31:28;28.38;;;12.88;;
66856;SDS011;53766;50.280;19.160;2022-11-15T15:33:55;22.35;;;12.43;;
66856;SDS011;53766;50.280;19.160;2022-11-15T15:36:23;23.73;;;13.05;;
66856;SDS011;53766;50.280;19.160;2022-11-15T15:38:50;23.80;;;13.55;;
66856;SDS011;53766;50.280;19.160;2022-11-15T15:41:18;24.15;;;12.98;;
66856;SDS011;53766;50.280;19.160;2022-11-15T15:43:45;23.17;;;13.07;;
66856;SDS011;53766;50.280;19.160;2022-11-15T15:46:14;25.77;;;13.25;;
66856;SDS011;53766;50.280;19.160;2022-11-15T15:48:43;26.65;;;13.38;;
66856;SDS011;53766;50.280;19.160;2022-11-15T15:51:11;24.92;;;13.15;;
66856;SDS011;53766;50.280;19.160;2022-11-15T15:56:14;23.17;;;12.68;;
66856;SDS011;53766;50.280;19.160;2022-11-15T15:58:42;25.73;;;13.38;;
66856;SDS011;53766;50.280;19.160;2022-11-15T16:01:09;23.50;;;13.35;;
66856;SDS011;53766;50.280;19.160;2022-11-15T16:03:37;22.20;;;12.77;;
66856;SDS011;53766;50.280;19.160;2022-11-15T16:06:04;22.90;;;12.57;;
66856;SDS011;53766;50.280;19.160;2022-11-15T16:08:52;23.25;;;13.35;;
66856;SDS011;53766;50.280;19.160;2022-11-15T16:11:39;24.92;;;13.57;;
66856;SDS011;53766;50.280;19.160;2022-11-15T16:14:08;23.20;;;13.10;;
66856;SDS011;53766;50.280;19.160;2022-11-15T16:16:36;24.38;;;14.43;;
66856;SDS011;53766;50.280;19.160;2022-11-15T16:19:04;21.95;;;12.88;;
66856;SDS011;53766;50.280;19.160;2022-11-15T16:21:32;24.27;;;13.38;;
66856;SDS011;53766;50.280;19.160;2022-11-15T16:23:59;25.45;;;14.27;;
66856;SDS011;53766;50.280;19.160;2022-11-15T16:26:27;23.02;;;12.85;;
66856;SDS011;53766;50.280;19.160;2022-11-15T16:28:57;24.27;;;13.68;;
66856;SDS011;53766;50.280;19.160;2022-11-15T16:31:25;27.80;;;13.82;;
66856;SDS011;53766;50.280;19.160;2022-11-15T16:33:52;24.77;;;13.90;;
66856;SDS011;53766;50.280;19.160;2022-11-15T16:36:26;21.75;;;13.10;;
66856;SDS011;53766;50.280;19.160;2022-11-15T16:38:58;23.50;;;13.48;;
66856;SDS011;53766;50.280;19.160;2022-11-15T16:41:27;25.88;;;13.07;;
66856;SDS011;53766;50.280;19.160;2022-11-15T16:43:54;24.48;;;13.43;;
66856;SDS011;53766;50.280;19.160;2022-11-15T16:46:25;26.88;;;13.95;;
66856;SDS011;53766;50.280;19.160;2022-11-15T16:48:54;22.48;;;13.10;;
66856;SDS011;53766;50.280;19.160;2022-11-15T16:51:23;22.58;;;13.52;;
66856;SDS011;53766;50.280;19.160;2022-11-15T16:53:51;24.40;;;13.60;;
66856;SDS011;53766;50.280;19.160;2022-11-15T16:56:23;23.40;;;13.63;;
66856;SDS011;53766;50.280;19.160;2022-11-15T16:58:53;23.95;;;13.73;;
66856;SDS011;53766;50.280;19.160;2022-11-15T17:01:23;25.25;;;13.73;;